This is the latest recevied weather packets stored in our database for station/object KI5NXU. If no packets are shown the sender has not sent any weather packets the latest 10 day(s).
| Time | Temp. | Humidity | Pressure | Rain* | Wind** | Luminosity | Snow |
|---|---|---|---|---|---|---|---|
| 1777912513 | 23.89° C | 64% | 1010.1 hPa | 0 mm | - | 801 W/m² | - |
| 1777912210 | 24.44° C | 63% | 1010.1 hPa | 0 mm | - | 796 W/m² | - |
| 1777911906 | 23.89° C | 64% | 1010 hPa | 0 mm | - | 736 W/m² | - |
| 1777911602 | 23.33° C | 65% | 1010.1 hPa | 0 mm | - | 609 W/m² | - |
| 1777911298 | 22.78° C | 65% | 1010.1 hPa | 0 mm | - | 546 W/m² | - |
| 1777910996 | 22.78° C | 65% | 1010.1 hPa | 0 mm | - | 506 W/m² | - |
| 1777910694 | 23.89° C | 65% | 1010.3 hPa | 0 mm | - | 442 W/m² | - |
| 1777910390 | 22.78° C | 67% | 1010.1 hPa | 0 mm | - | 576 W/m² | - |
| 1777910086 | 23.33° C | 65% | 1010.4 hPa | 0 mm | - | 540 W/m² | - |
| 1777909784 | 23.33° C | 65% | 1010.4 hPa | 0 mm | - | 536 W/m² | - |
| 1777909481 | 22.22° C | 65% | 1010.4 hPa | 0 mm | - | 586 W/m² | - |
| 1777909178 | 23.33° C | 65% | 1010.6 hPa | 0 mm | - | 585 W/m² | - |
| 1777908876 | 22.78° C | 66% | 1010.6 hPa | 0 mm | - | 585 W/m² | - |
| 1777908573 | 22.78° C | 67% | 1010.4 hPa | 0 mm | - | 592 W/m² | - |
| 1777908270 | 22.78° C | 67% | 1010.4 hPa | 0 mm | - | 591 W/m² | - |
| 1777907966 | 22.22° C | 67% | 1010.4 hPa | 0 mm | - | 507 W/m² | - |
| 1777907662 | 21.67° C | 68% | 1010.5 hPa | 0 mm | - | 527 W/m² | - |
| 1777907358 | 21.67° C | 68% | 1010.5 hPa | 0 mm | - | 359 W/m² | - |
| 1777907054 | 22.22° C | 67% | 1010.6 hPa | 0 mm | - | 511 W/m² | - |
| 1777906752 | 20.56° C | 70% | 1010.5 hPa | 0 mm | - | 498 W/m² | - |
| 1777906448 | 21.11° C | 72% | 1010.6 hPa | 0 mm | - | 402 W/m² | - |
| 1777906145 | 20.56° C | 72% | 1010.7 hPa | 0 mm | - | 464 W/m² | - |
| 1777905842 | 20.56° C | 70% | 1010.9 hPa | 0 mm | - | 310 W/m² | - |
| 1777905539 | 21.11° C | 70% | 1011 hPa | 0 mm | - | 342 W/m² | - |
| 1777905235 | 20.56° C | 72% | 1011 hPa | 0 mm | - | 317 W/m² | - |
* Rain latest hour (hover to see other rain measurements)
** Current wind speed in m/s (hover to see current wind gust speed)